Time;durP1;ratioP1;P1;durP2;ratioP2;P2;SDS_P1;SDS_P2;PMS_P1;PMS_P2;Temp;Humidity;BMP_temperature;BMP_pressure;BME280_temperature;BME280_humidity;BME280_pressure;Samples;Min_cycle;Max_cycle;Signal;HPM_P1;HPM_P2
2022/05/05 00:05:55;;;;;;;1.48;1.05;;;15.50;61.00;;;;;;21048145;28;20059;-73
2022/05/05 00:15:55;;;;;;;2.30;1.00;;;15.50;60.30;;;;;;21048371;28;20032;-75
2022/05/05 00:25:56;;;;;;;1.25;1.00;;;15.50;60.30;;;;;;21047474;28;20066;-73
2022/05/05 00:35:56;;;;;;;1.50;1.23;;;15.40;60.10;;;;;;21063195;28;20144;-73
2022/05/05 00:45:57;;;;;;;4.45;1.15;;;15.40;60.10;;;;;;21044847;28;20395;-72
2022/05/05 00:56:02;;;;;;;1.67;1.00;;;15.40;60.00;;;;;;21043011;28;20119;-72
2022/05/05 01:06:03;;;;;;;2.05;1.10;;;15.40;60.00;;;;;;21011002;28;20028;-73
2022/05/05 01:16:05;;;;;;;2.83;1.13;;;15.40;60.00;;;;;;21042705;28;20501;-73
2022/05/05 01:36:24;;;;;;;1.85;1.20;;;15.40;59.80;;;;;;21060309;28;20032;-72
2022/05/05 01:46:25;;;;;;;1.80;0.90;;;15.40;59.70;;;;;;21040782;28;20039;-72
2022/05/05 01:56:25;;;;;;;2.83;0.98;;;15.40;59.70;;;;;;21039366;28;20123;-72
2022/05/05 02:06:26;;;;;;;1.67;0.90;;;15.40;59.60;;;;;;21055231;28;20195;-73
2022/05/05 02:16:27;;;;;;;1.37;0.93;;;15.40;59.60;;;;;;21021205;28;20050;-73
2022/05/05 02:26:27;;;;;;;1.27;1.02;;;15.30;59.50;;;;;;21037172;28;20298;-72
2022/05/05 02:46:47;;;;;;;3.05;1.38;;;15.40;59.50;;;;;;21055215;28;20075;-72
2022/05/05 02:56:47;;;;;;;1.63;1.10;;;15.30;59.40;;;;;;21052019;28;20075;-72
2022/05/05 03:06:48;;;;;;;1.67;1.00;;;15.30;59.30;;;;;;21034324;28;20043;-74
2022/05/05 03:16:48;;;;;;;1.45;0.95;;;15.30;59.30;;;;;;21017933;28;20067;-73
2022/05/05 03:26:49;;;;;;;2.08;1.00;;;15.30;59.20;;;;;;21033268;28;20058;-72
2022/05/05 03:36:49;;;;;;;2.03;1.08;;;15.20;59.20;;;;;;21034365;28;20036;-73
2022/05/05 03:46:50;;;;;;;1.90;1.13;;;15.20;59.20;;;;;;21066948;28;20059;-73
2022/05/05 03:56:50;;;;;;;5.78;1.30;;;15.20;59.10;;;;;;21065926;28;20032;-73
2022/05/05 04:06:51;;;;;;;3.20;1.20;;;15.20;59.10;;;;;;21065397;28;20614;-74
2022/05/05 04:16:52;;;;;;;3.22;1.25;;;15.20;59.10;;;;;;21015669;28;20028;-72
2022/05/05 04:26:52;;;;;;;4.43;1.00;;;15.20;59.10;;;;;;21064235;28;20472;-74
2022/05/05 04:36:53;;;;;;;2.58;1.15;;;15.10;59.10;;;;;;21062388;28;20133;-74
2022/05/05 04:46:53;;;;;;;1.88;1.10;;;15.20;59.10;;;;;;21047856;28;20040;-77
2022/05/05 04:56:54;;;;;;;2.83;1.05;;;15.10;59.10;;;;;;21061378;28;20032;-74
2022/05/05 05:06:55;;;;;;;1.67;0.88;;;15.20;59.00;;;;;;20966341;28;20139;-74
2022/05/05 05:16:55;;;;;;;2.70;1.35;;;15.10;58.90;;;;;;21136489;28;20028;-76
2022/05/05 05:26:56;;;;;;;3.30;1.75;;;15.10;58.90;;;;;;21005622;28;20090;-73
2022/05/05 05:36:57;;;;;;;1.83;1.30;;;15.10;58.90;;;;;;20977358;28;20032;-72
2022/05/05 05:46:57;;;;;;;2.60;0.88;;;15.10;58.90;;;;;;21006253;28;20050;-75
2022/05/05 05:56:58;;;;;;;1.38;1.02;;;15.10;58.90;;;;;;20997020;28;20036;-73
2022/05/05 06:06:59;;;;;;;5.88;1.38;;;15.20;59.00;;;;;;21056619;28;20115;-73
2022/05/05 06:16:59;;;;;;;4.20;1.00;;;15.20;58.90;;;;;;21039229;28;20409;-72
2022/05/05 06:27:00;;;;;;;1.38;0.98;;;15.20;59.10;;;;;;21038221;28;20052;-73
2022/05/05 06:37:00;;;;;;;0.82;0.77;;;15.20;59.20;;;;;;21024637;28;20040;-74
2022/05/05 06:47:01;;;;;;;2.85;1.13;;;15.30;59.20;;;;;;21017629;28;20078;-72
2022/05/05 06:57:02;;;;;;;2.97;0.90;;;15.30;59.30;;;;;;20952295;28;20040;-74
2022/05/05 07:07:03;;;;;;;3.40;1.40;;;15.30;59.20;;;;;;21206200;23;20308;-72
2022/05/05 07:17:04;;;;;;;1.98;0.90;;;15.30;59.10;;;;;;20705752;28;20143;-72
2022/05/05 07:27:05;;;;;;;3.80;1.05;;;15.30;59.00;;;;;;20721612;28;20121;-72
2022/05/05 07:37:06;;;;;;;1.65;1.00;;;15.30;59.60;;;;;;20689338;28;20486;-73
2022/05/05 07:47:07;;;;;;;2.87;0.90;;;15.30;58.90;;;;;;20721238;28;20038;-72
2022/05/05 07:57:08;;;;;;;1.80;0.70;;;15.30;58.80;;;;;;20738063;28;20468;-72
2022/05/05 08:07:09;;;;;;;2.40;0.93;;;15.40;58.90;;;;;;20706686;28;20064;-71
2022/05/05 08:17:09;;;;;;;3.88;1.38;;;15.40;58.80;;;;;;20686666;28;20486;-72
2022/05/05 08:37:29;;;;;;;3.50;1.00;;;15.40;58.70;;;;;;20735513;28;20065;-73
2022/05/05 08:47:31;;;;;;;1.92;0.82;;;15.40;58.50;;;;;;20768855;28;20064;-74
2022/05/05 08:57:32;;;;;;;2.03;0.80;;;15.40;58.40;;;;;;20780715;28;20041;-74
2022/05/05 09:07:53;;;;;;;1.92;0.77;;;15.50;58.30;;;;;;20744786;28;20045;-76
2022/05/05 09:17:53;;;;;;;2.05;1.20;;;15.50;58.20;;;;;;20709614;28;20386;-76
2022/05/05 09:27:54;;;;;;;1.02;0.93;;;15.50;58.10;;;;;;20627371;28;20034;-77
2022/05/05 09:37:54;;;;;;;1.55;0.80;;;15.50;58.00;;;;;;20658535;28;20124;-76
2022/05/05 09:47:57;;;;;;;1.60;0.68;;;15.40;57.70;;;;;;20712149;28;20034;-76
2022/05/05 09:57:59;;;;;;;2.00;0.98;;;15.50;57.40;;;;;;20726721;28;20037;-73
2022/05/05 10:08:00;;;;;;;0.93;0.82;;;15.50;57.00;;;;;;20711058;28;20776;-73
2022/05/05 10:18:02;;;;;;;3.60;0.75;;;15.50;56.80;;;;;;20708668;28;20030;-74
2022/05/05 10:28:23;;;;;;;0.60;0.50;;;15.50;56.70;;;;;;20708242;28;20038;-70
2022/05/05 10:38:42;;;;;;;2.13;0.77;;;15.50;56.40;;;;;;20710432;28;20037;-72
2022/05/05 10:48:43;;;;;;;1.73;0.80;;;15.50;56.50;;;;;;20741102;28;20053;-74
2022/05/05 10:58:59;;;;;;;1.88;0.68;;;15.50;56.60;;;;;;20691605;28;20470;-77
2022/05/05 11:09:00;;;;;;;2.35;2.15;;;15.50;56.70;;;;;;20740919;28;20506;-73
2022/05/05 11:29:32;;;;;;;1.33;0.70;;;15.50;56.40;;;;;;20724935;28;20105;-76
2022/05/05 11:39:34;;;;;;;1.60;0.80;;;15.50;56.20;;;;;;20748975;28;20501;-75
2022/05/05 11:49:35;;;;;;;9.52;2.22;;;15.50;55.50;;;;;;20803874;28;20034;-79
2022/05/05 12:09:56;;;;;;;1.10;0.60;;;15.50;54.30;;;;;;20781525;28;20124;-80
2022/05/05 12:19:59;;;;;;;2.85;0.65;;;15.50;54.70;;;;;;20738924;28;20482;-78
2022/05/05 12:30:00;;;;;;;0.93;0.73;;;15.50;54.80;;;;;;20706566;28;20148;-78
2022/05/05 12:40:07;;;;;;;1.08;0.50;;;15.60;54.80;;;;;;20767154;28;20044;-79
2022/05/05 12:50:32;;;;;;;0.98;0.55;;;15.60;55.40;;;;;;20803697;28;20113;-80
2022/05/05 13:00:33;;;;;;;2.13;0.47;;;15.60;54.50;;;;;;20818311;28;20053;-80
2022/05/05 13:10:34;;;;;;;0.50;0.40;;;15.70;54.60;;;;;;20772747;28;20165;-78
2022/05/05 13:20:35;;;;;;;1.45;0.60;;;15.70;54.60;;;;;;20704086;28;20063;-79
2022/05/05 13:30:36;;;;;;;1.08;0.68;;;15.70;54.70;;;;;;20665992;28;20137;-77
2022/05/05 13:40:37;;;;;;;2.08;0.63;;;15.80;54.90;;;;;;20738984;28;20061;-80
2022/05/05 13:50:38;;;;;;;0.90;0.70;;;15.80;55.00;;;;;;20728024;28;20074;-79
2022/05/05 14:00:38;;;;;;;0.65;0.43;;;15.90;55.00;;;;;;20776796;28;20444;-75
2022/05/05 14:20:58;;;;;;;1.98;1.15;;;16.00;55.10;;;;;;20698516;28;20037;-76
2022/05/05 14:30:59;;;;;;;1.48;0.90;;;16.10;54.70;;;;;;20675591;28;20038;-78
2022/05/05 14:41:00;;;;;;;1.30;0.60;;;16.10;54.60;;;;;;20722268;28;20426;-79
2022/05/05 14:51:00;;;;;;;1.42;0.57;;;16.10;54.40;;;;;;20673569;28;20316;-77
2022/05/05 15:01:01;;;;;;;1.92;0.85;;;16.10;54.50;;;;;;20691210;28;20041;-77
2022/05/05 15:11:01;;;;;;;1.15;0.60;;;16.10;54.50;;;;;;20706333;28;20045;-77
2022/05/05 15:21:02;;;;;;;1.63;0.70;;;16.10;54.70;;;;;;20690180;28;20124;-79
2022/05/05 15:31:04;;;;;;;1.65;0.70;;;16.10;54.80;;;;;;20706608;28;20040;-77
2022/05/05 15:41:05;;;;;;;2.30;0.60;;;16.10;55.00;;;;;;20706151;28;20436;-77
2022/05/05 15:51:05;;;;;;;2.35;0.65;;;16.20;54.70;;;;;;20722705;28;20034;-73
2022/05/05 16:01:06;;;;;;;4.45;0.77;;;16.30;54.60;;;;;;20672257;28;20041;-74
2022/05/05 16:11:07;;;;;;;0.77;0.32;;;16.30;54.60;;;;;;20721156;28;20070;-76
2022/05/05 16:21:07;;;;;;;2.08;0.70;;;16.30;54.70;;;;;;20704484;28;20045;-73
2022/05/05 16:31:09;;;;;;;2.53;0.60;;;16.20;54.80;;;;;;20694755;28;20053;-74
2022/05/05 16:41:09;;;;;;;0.77;0.60;;;16.20;55.10;;;;;;20702287;28;20038;-74
2022/05/05 16:51:11;;;;;;;6.28;1.17;;;16.20;55.20;;;;;;20685302;28;20104;-75
2022/05/05 17:01:15;;;;;;;6.95;1.42;;;16.20;55.20;;;;;;20706659;28;20034;-77
2022/05/05 17:11:16;;;;;;;1.63;0.70;;;16.30;54.90;;;;;;20719338;28;20071;-76
2022/05/05 17:21:17;;;;;;;5.45;1.20;;;16.40;54.70;;;;;;20729761;28;20514;-74
2022/05/05 17:31:17;;;;;;;4.70;0.70;;;16.50;54.80;;;;;;20730134;28;20046;-76
2022/05/05 17:41:18;;;;;;;1.58;0.60;;;16.50;54.80;;;;;;20713074;28;20033;-75
2022/05/05 17:51:19;;;;;;;4.30;0.82;;;16.60;55.00;;;;;;20692373;28;20113;-74
2022/05/05 18:01:20;;;;;;;2.75;0.50;;;16.50;55.20;;;;;;20694020;28;20107;-73
2022/05/05 18:11:20;;;;;;;3.00;0.68;;;16.50;55.40;;;;;;20709253;28;20034;-75
2022/05/05 18:21:21;;;;;;;2.85;0.95;;;16.40;55.60;;;;;;20677344;28;20144;-74
2022/05/05 18:31:22;;;;;;;1.83;0.70;;;16.40;55.90;;;;;;20692353;28;20042;-74
2022/05/05 18:41:23;;;;;;;3.22;0.50;;;16.40;56.20;;;;;;20741489;28;20056;-73
2022/05/05 18:51:23;;;;;;;0.93;0.60;;;16.30;56.30;;;;;;20691745;28;20367;-75
2022/05/05 19:01:24;;;;;;;0.85;0.45;;;16.40;56.60;;;;;;20706279;28;20045;-75
2022/05/05 19:11:25;;;;;;;0.98;0.52;;;16.30;56.60;;;;;;20722432;28;20073;-74
2022/05/05 19:21:25;;;;;;;0.47;0.47;;;16.20;56.80;;;;;;20680030;28;20092;-73
2022/05/05 19:31:26;;;;;;;1.02;0.60;;;16.20;57.50;;;;;;20662337;28;20570;-74
2022/05/05 19:41:27;;;;;;;1.52;0.50;;;16.20;57.00;;;;;;20652256;28;20483;-74
2022/05/05 19:51:27;;;;;;;0.60;0.50;;;16.20;57.10;;;;;;20621827;28;20062;-74
2022/05/05 20:01:28;;;;;;;0.70;0.43;;;16.20;57.20;;;;;;20622969;28;20110;-74
2022/05/05 20:11:29;;;;;;;1.13;0.50;;;16.10;57.20;;;;;;20648762;28;20046;-73
2022/05/05 20:21:30;;;;;;;1.33;0.55;;;16.10;57.20;;;;;;20669743;28;20041;-73
2022/05/05 20:31:30;;;;;;;1.00;0.40;;;16.10;57.30;;;;;;20669054;28;20465;-74
2022/05/05 20:41:31;;;;;;;0.60;0.60;;;16.10;57.30;;;;;;20652128;28;20038;-74
2022/05/05 20:51:32;;;;;;;1.13;0.50;;;16.10;57.40;;;;;;20651239;28;20049;-74
2022/05/05 21:01:32;;;;;;;0.88;0.60;;;16.00;57.40;;;;;;20650627;28;20333;-73
2022/05/05 21:11:34;;;;;;;1.30;0.80;;;16.00;57.40;;;;;;20727262;28;20049;-74
2022/05/05 21:31:53;;;;;;;1.30;0.57;;;16.00;58.10;;;;;;20747537;28;20034;-74
2022/05/05 21:41:54;;;;;;;0.63;0.60;;;16.00;57.50;;;;;;20712228;28;20034;-75
2022/05/05 21:51:55;;;;;;;2.10;0.60;;;15.90;57.40;;;;;;20712150;28;20034;-75
2022/05/05 22:01:55;;;;;;;0.68;0.47;;;15.90;57.40;;;;;;20727165;28;20327;-74
2022/05/05 22:11:56;;;;;;;0.52;0.52;;;15.90;57.50;;;;;;20726520;28;20104;-74
2022/05/05 22:21:57;;;;;;;1.52;0.70;;;15.90;57.50;;;;;;20725836;28;20105;-73
2022/05/05 22:31:57;;;;;;;1.92;0.90;;;15.90;57.50;;;;;;20707900;28;20041;-75
2022/05/05 22:41:58;;;;;;;0.87;0.60;;;15.90;57.50;;;;;;20724015;28;20113;-75
2022/05/05 22:51:59;;;;;;;1.02;0.57;;;15.90;57.50;;;;;;20723875;28;20320;-74
2022/05/05 23:01:59;;;;;;;1.90;0.70;;;15.80;57.50;;;;;;20706494;28;20103;-74
2022/05/05 23:12:00;;;;;;;1.17;0.70;;;15.90;57.50;;;;;;20722504;28;20048;-74
2022/05/05 23:22:01;;;;;;;2.88;0.52;;;15.80;57.50;;;;;;20705871;28;20038;-73
2022/05/05 23:32:05;;;;;;;1.25;0.80;;;15.80;57.50;;;;;;20705076;28;20030;-74
2022/05/05 23:42:05;;;;;;;1.20;0.70;;;15.80;57.60;;;;;;20733204;28;20041;-74
2022/05/05 23:52:06;;;;;;;1.23;0.57;;;15.80;57.60;;;;;;20737053;28;20040;-74
